Time;durP1;ratioP1;P1;durP2;ratioP2;P2;SDS_P1;SDS_P2;PMS_P1;PMS_P2;Temp;Humidity;BMP_temperature;BMP_pressure;BME280_temperature;BME280_humidity;BME280_pressure;Samples;Min_cycle;Max_cycle;Signal;HPM_P1;HPM_P2
2022/10/04 00:02:17;;;;;;;3.63;3.33;;;11.20;99.90;;;;;;5085754;28;20195;-48
2022/10/04 00:04:47;;;;;;;3.53;3.23;;;11.10;99.90;;;;;;5093642;28;20245;-48
2022/10/04 00:07:19;;;;;;;4.67;3.87;;;11.10;99.90;;;;;;5093556;28;20741;-48
2022/10/04 00:09:51;;;;;;;3.10;3.00;;;11.00;99.90;;;;;;5091972;28;20220;-49
2022/10/04 00:12:22;;;;;;;3.77;3.50;;;10.90;99.90;;;;;;5084593;28;20207;-49
2022/10/04 00:14:51;;;;;;;2.67;2.57;;;11.00;99.90;;;;;;5090525;28;20675;-49
2022/10/04 00:17:22;;;;;;;3.60;2.97;;;10.80;99.90;;;;;;5093593;28;20207;-48
2022/10/04 00:19:51;;;;;;;3.57;3.27;;;10.80;99.90;;;;;;5090744;28;20219;-49
2022/10/04 00:22:21;;;;;;;4.17;2.77;;;10.80;99.90;;;;;;5093570;28;20266;-48
2022/10/04 00:25:33;;;;;;;5.70;3.50;;;10.70;99.90;;;;;;5090699;28;20214;-48
2022/10/04 00:28:41;;;;;;;2.43;2.33;;;10.60;99.90;;;;;;5092747;28;20692;-48
2022/10/04 00:31:23;;;;;;;3.37;3.17;;;10.50;99.90;;;;;;5084610;28;20255;-48
2022/10/04 00:33:52;;;;;;;3.80;3.60;;;10.50;99.90;;;;;;5086500;28;20719;-48
2022/10/04 00:36:50;;;;;;;3.80;2.87;;;10.50;99.90;;;;;;5093512;28;20203;-48
2022/10/04 00:39:49;;;;;;;4.63;3.13;;;10.40;99.90;;;;;;5085504;28;20302;-50
2022/10/04 00:42:45;;;;;;;2.47;2.33;;;10.30;99.90;;;;;;5093184;28;20725;-49
2022/10/04 00:45:28;;;;;;;2.87;2.73;;;10.30;99.90;;;;;;5090487;28;20197;-49
2022/10/04 00:48:23;;;;;;;2.37;2.20;;;10.20;99.90;;;;;;5092242;28;20739;-49
2022/10/04 00:50:56;;;;;;;5.13;2.67;;;10.20;99.90;;;;;;5091830;28;20253;-49
2022/10/04 00:53:42;;;;;;;2.77;2.43;;;10.20;99.90;;;;;;5088527;28;20244;-49
2022/10/04 00:56:15;;;;;;;2.83;2.60;;;10.10;99.90;;;;;;5086114;28;20202;-50
2022/10/04 00:59:02;;;;;;;2.57;2.40;;;10.10;99.90;;;;;;5092988;28;20279;-49
2022/10/04 01:01:34;;;;;;;2.10;2.03;;;10.10;99.90;;;;;;5092150;28;20205;-48
2022/10/04 01:04:05;;;;;;;2.93;2.53;;;10.00;99.90;;;;;;5091012;28;20197;-49
2022/10/04 01:06:34;;;;;;;5.03;2.97;;;10.00;99.90;;;;;;5092831;28;20198;-49
2022/10/04 01:09:05;;;;;;;4.03;3.00;;;10.00;99.90;;;;;;5089677;28;20266;-49
2022/10/04 01:11:38;;;;;;;2.80;2.60;;;10.00;99.90;;;;;;5088256;28;20248;-48
2022/10/04 01:14:16;;;;;;;4.37;2.90;;;10.00;99.90;;;;;;5086443;28;20280;-48
2022/10/04 01:16:44;;;;;;;2.77;2.57;;;10.00;99.90;;;;;;5083714;28;20209;-49
2022/10/04 01:19:30;;;;;;;2.97;2.77;;;10.00;99.90;;;;;;5084774;28;20658;-49
2022/10/04 01:22:10;;;;;;;3.20;3.00;;;9.90;99.90;;;;;;5091679;28;20605;-49
2022/10/04 01:24:40;;;;;;;2.87;2.77;;;9.90;99.90;;;;;;5092108;28;20923;-48
2022/10/04 01:27:31;;;;;;;3.23;2.53;;;9.90;99.90;;;;;;5088664;28;20277;-49
2022/10/04 01:29:59;;;;;;;3.50;3.20;;;9.80;99.90;;;;;;5089841;28;20310;-49
2022/10/04 01:32:26;;;;;;;3.67;3.43;;;9.80;99.90;;;;;;5084323;28;20311;-48
2022/10/04 01:34:53;;;;;;;3.50;3.20;;;9.70;99.90;;;;;;5082259;28;20234;-49
2022/10/04 01:37:20;;;;;;;2.60;2.40;;;9.70;99.90;;;;;;5092050;28;20268;-49
2022/10/04 01:39:49;;;;;;;2.50;2.13;;;9.70;99.90;;;;;;5088772;28;20691;-50
2022/10/04 01:42:21;;;;;;;2.97;2.80;;;9.70;99.90;;;;;;5090393;28;20199;-48
2022/10/04 01:44:54;;;;;;;1.80;1.70;;;9.80;99.90;;;;;;5081728;28;20203;-49
2022/10/04 01:47:27;;;;;;;13.00;2.60;;;9.80;99.90;;;;;;5087566;28;20200;-48
2022/10/04 01:49:58;;;;;;;2.03;1.97;;;9.80;99.90;;;;;;5089584;28;20279;-48
2022/10/04 01:52:32;;;;;;;2.03;1.93;;;9.80;99.90;;;;;;5087173;28;20222;-48
2022/10/04 01:55:05;;;;;;;2.93;2.70;;;9.80;99.90;;;;;;5073877;28;20207;-49
2022/10/04 01:57:35;;;;;;;2.63;2.43;;;9.80;99.90;;;;;;5087680;28;20247;-49
2022/10/04 02:00:06;;;;;;;3.87;3.30;;;9.70;99.90;;;;;;5073567;28;20276;-49
2022/10/04 02:02:39;;;;;;;3.77;3.57;;;9.70;99.90;;;;;;5084908;28;20192;-49
2022/10/04 02:05:10;;;;;;;2.60;2.47;;;9.70;99.90;;;;;;5088611;28;20202;-49
2022/10/04 02:07:38;;;;;;;4.10;3.53;;;9.70;99.90;;;;;;5091755;28;20275;-48
2022/10/04 02:10:11;;;;;;;5.43;3.37;;;9.70;99.90;;;;;;5079533;28;20226;-49
2022/10/04 02:12:44;;;;;;;2.97;2.70;;;9.70;99.90;;;;;;5086529;28;20199;-48
2022/10/04 02:15:12;;;;;;;3.37;3.17;;;9.70;99.90;;;;;;5083838;28;20196;-48
2022/10/04 02:17:42;;;;;;;2.87;2.57;;;9.80;99.90;;;;;;5091820;28;20196;-49
2022/10/04 02:20:14;;;;;;;2.70;2.50;;;9.80;99.90;;;;;;5082762;28;20681;-49
2022/10/04 02:22:42;;;;;;;2.73;2.63;;;9.90;99.90;;;;;;5088739;28;20198;-49
2022/10/04 02:25:12;;;;;;;1.97;1.87;;;10.00;99.90;;;;;;5080082;28;20198;-49
2022/10/04 02:27:39;;;;;;;2.67;1.87;;;10.00;99.90;;;;;;5091317;28;20209;-48
2022/10/04 02:30:09;;;;;;;1.90;1.90;;;10.00;99.90;;;;;;5091823;28;20233;-49
2022/10/04 02:35:24;;;;;;;1.70;1.70;;;10.00;99.90;;;;;;5088705;28;20290;-49
2022/10/04 02:37:58;;;;;;;2.93;2.03;;;10.00;99.90;;;;;;5086005;28;20296;-48
2022/10/04 02:40:31;;;;;;;1.50;1.47;;;9.90;99.90;;;;;;5094807;28;20215;-49
2022/10/04 02:43:03;;;;;;;1.70;1.60;;;9.90;99.90;;;;;;5093933;28;20203;-49
2022/10/04 02:45:42;;;;;;;3.53;3.33;;;9.80;99.90;;;;;;5092640;28;20250;-49
2022/10/04 02:48:22;;;;;;;2.60;2.50;;;9.70;99.90;;;;;;5083405;28;20198;-49
2022/10/04 02:50:53;;;;;;;2.43;2.33;;;9.60;99.90;;;;;;5088608;28;20227;-48
2022/10/04 02:53:26;;;;;;;3.17;2.93;;;9.60;99.90;;;;;;5091919;28;20292;-48
2022/10/04 02:55:55;;;;;;;3.80;3.37;;;9.50;99.90;;;;;;5093118;28;20201;-48
2022/10/04 02:58:25;;;;;;;3.90;3.50;;;9.50;99.90;;;;;;5089924;28;20248;-48
2022/10/04 03:00:56;;;;;;;2.70;2.50;;;9.40;99.90;;;;;;5091391;28;20218;-49
2022/10/04 03:03:25;;;;;;;4.50;3.60;;;9.40;99.90;;;;;;5091142;28;20216;-48
2022/10/04 03:06:03;;;;;;;4.87;3.33;;;9.40;99.90;;;;;;5089828;28;20260;-48
2022/10/04 03:08:34;;;;;;;4.00;3.67;;;9.30;99.90;;;;;;5090372;28;20208;-48
2022/10/04 03:11:04;;;;;;;4.50;4.03;;;9.30;99.90;;;;;;5089857;28;20191;-49
2022/10/04 03:13:36;;;;;;;7.50;4.47;;;9.30;99.90;;;;;;5090053;28;20833;-49
2022/10/04 03:16:03;;;;;;;4.23;3.80;;;9.30;99.90;;;;;;5086531;28;20194;-50
2022/10/04 03:18:31;;;;;;;4.53;4.13;;;9.30;99.90;;;;;;5094857;28;20208;-48
2022/10/04 03:21:02;;;;;;;4.07;3.67;;;9.30;99.90;;;;;;5094475;28;20260;-48
2022/10/04 03:23:34;;;;;;;3.83;3.53;;;9.20;99.90;;;;;;5086521;28;20562;-49
2022/10/04 03:26:09;;;;;;;4.17;3.77;;;9.20;99.90;;;;;;5086265;28;20257;-49
2022/10/04 03:28:41;;;;;;;3.57;3.27;;;9.20;99.90;;;;;;5093280;28;20847;-49
2022/10/04 03:31:08;;;;;;;3.57;3.40;;;9.10;99.90;;;;;;5094687;28;20201;-48
2022/10/04 03:33:37;;;;;;;3.53;3.33;;;9.10;99.90;;;;;;5085464;28;20623;-49
2022/10/04 03:36:04;;;;;;;5.23;4.07;;;9.10;99.90;;;;;;5092955;28;20199;-49
2022/10/04 03:38:39;;;;;;;3.90;3.67;;;9.10;99.90;;;;;;5094205;28;20552;-48
2022/10/04 03:41:10;;;;;;;3.47;3.27;;;9.10;99.90;;;;;;5090261;28;20313;-49
2022/10/04 03:43:45;;;;;;;4.50;3.23;;;9.00;99.90;;;;;;5090701;28;20203;-50
2022/10/04 03:46:14;;;;;;;3.47;2.80;;;8.90;99.90;;;;;;5082230;28;20617;-48
2022/10/04 03:48:44;;;;;;;2.80;2.60;;;8.90;99.90;;;;;;5093321;28;20206;-48
2022/10/04 03:51:16;;;;;;;3.30;3.00;;;8.90;99.90;;;;;;5092924;28;20578;-49
2022/10/04 03:53:45;;;;;;;3.00;2.77;;;8.90;99.90;;;;;;5090615;28;20206;-49
2022/10/04 03:56:18;;;;;;;2.23;2.13;;;8.90;99.90;;;;;;5091304;28;20264;-49
2022/10/04 03:58:46;;;;;;;2.30;2.20;;;8.90;99.90;;;;;;5085015;28;20225;-48
2022/10/04 04:01:24;;;;;;;2.23;2.13;;;8.80;99.90;;;;;;5084458;28;20261;-48
2022/10/04 04:04:07;;;;;;;2.33;2.23;;;8.90;99.90;;;;;;5075859;28;20198;-48
2022/10/04 04:06:42;;;;;;;3.50;2.60;;;9.00;99.90;;;;;;5074936;28;20290;-49
2022/10/04 04:19:27;;;;;;;2.60;2.40;;;8.70;99.90;;;;;;5033007;28;20214;-49
2022/10/04 04:21:55;;;;;;;3.87;2.17;;;8.70;99.90;;;;;;5079479;28;20570;-48
2022/10/04 04:24:27;;;;;;;2.60;2.43;;;8.60;99.90;;;;;;5093168;28;20259;-49
2022/10/04 04:26:58;;;;;;;1.87;1.87;;;8.60;99.90;;;;;;5093516;28;20256;-49
2022/10/04 04:29:31;;;;;;;1.80;1.80;;;8.50;99.90;;;;;;5077747;28;20226;-48
2022/10/04 04:32:02;;;;;;;2.00;1.90;;;8.40;99.90;;;;;;5079983;28;20206;-49
2022/10/04 04:34:33;;;;;;;2.53;2.33;;;8.30;99.90;;;;;;5088868;28;20603;-49
2022/10/04 04:37:02;;;;;;;1.73;1.50;;;8.30;99.90;;;;;;5089108;28;20202;-48
2022/10/04 04:39:40;;;;;;;2.27;2.17;;;8.30;99.90;;;;;;5093249;28;20576;-48
2022/10/04 04:42:18;;;;;;;2.10;2.00;;;8.20;99.90;;;;;;5093384;28;20200;-48
2022/10/04 04:44:50;;;;;;;2.07;1.97;;;8.20;99.90;;;;;;5092661;28;20241;-48
2022/10/04 04:47:31;;;;;;;3.27;2.17;;;8.10;99.90;;;;;;5093178;28;20202;-48
2022/10/04 04:50:05;;;;;;;1.87;1.77;;;8.10;99.90;;;;;;5085528;28;20249;-48
2022/10/04 04:52:34;;;;;;;3.90;2.60;;;8.10;99.90;;;;;;5091559;28;20292;-48
2022/10/04 04:55:01;;;;;;;2.33;2.07;;;8.10;99.90;;;;;;5091262;28;20251;-48
2022/10/04 04:57:29;;;;;;;2.40;2.20;;;8.10;99.90;;;;;;5091992;28;20206;-48
2022/10/04 04:59:59;;;;;;;5.87;3.83;;;8.10;99.90;;;;;;5092650;28;20263;-49
2022/10/04 05:02:31;;;;;;;3.40;3.20;;;8.10;99.90;;;;;;5092697;28;20255;-49
2022/10/04 05:05:22;;;;;;;4.00;2.60;;;8.10;99.90;;;;;;5092279;28;20308;-49
2022/10/04 05:07:50;;;;;;;6.27;3.60;;;8.10;99.90;;;;;;5093010;28;20263;-48
2022/10/04 05:10:28;;;;;;;4.70;4.30;;;8.10;99.90;;;;;;5086824;28;20223;-49
2022/10/04 05:12:55;;;;;;;7.73;3.80;;;8.10;99.90;;;;;;5072286;28;20273;-48
2022/10/04 05:15:23;;;;;;;4.70;4.37;;;8.20;99.90;;;;;;5076467;28;20668;-49
2022/10/04 05:17:50;;;;;;;5.07;4.57;;;8.20;99.90;;;;;;5092323;28;20199;-48
2022/10/04 05:20:17;;;;;;;4.77;4.37;;;8.30;99.90;;;;;;5092488;28;20284;-49
2022/10/04 05:22:49;;;;;;;5.77;5.17;;;8.30;99.90;;;;;;5091532;28;20202;-49
2022/10/04 05:25:25;;;;;;;8.53;6.33;;;8.40;99.90;;;;;;5082760;28;20620;-48
2022/10/04 05:27:54;;;;;;;5.67;4.03;;;8.40;99.90;;;;;;5080443;28;20269;-48
2022/10/04 05:30:45;;;;;;;6.70;5.23;;;8.40;99.90;;;;;;5071789;28;20276;-48
2022/10/04 05:33:14;;;;;;;9.00;5.60;;;8.40;99.90;;;;;;5071667;28;20677;-48
2022/10/04 05:35:54;;;;;;;7.68;6.13;;;8.50;99.90;;;;;;5071197;28;20507;-48
2022/10/04 05:38:32;;;;;;;7.93;5.88;;;8.40;99.90;;;;;;5089350;28;20440;-49
2022/10/04 05:41:06;;;;;;;4.97;4.53;;;8.40;99.90;;;;;;5085878;28;20289;-48
2022/10/04 05:43:44;;;;;;;5.60;4.57;;;8.40;99.90;;;;;;5084723;28;20197;-50
2022/10/04 05:46:18;;;;;;;5.57;4.47;;;8.40;99.90;;;;;;5075453;28;20209;-49
2022/10/04 05:48:48;;;;;;;9.13;4.57;;;8.30;99.90;;;;;;5080907;28;20205;-48
2022/10/04 05:51:20;;;;;;;6.23;5.63;;;8.30;99.90;;;;;;5091676;28;20214;-48
2022/10/04 05:53:52;;;;;;;7.37;4.97;;;8.20;99.90;;;;;;5074420;28;20208;-48
2022/10/04 05:56:42;;;;;;;6.20;4.90;;;8.30;99.90;;;;;;5071567;28;20721;-49
2022/10/04 05:59:27;;;;;;;5.00;4.50;;;8.30;99.90;;;;;;5071273;28;20227;-49
2022/10/04 06:02:04;;;;;;;4.43;4.03;;;8.30;99.90;;;;;;5081349;28;20316;-48
2022/10/04 06:04:58;;;;;;;4.87;4.43;;;8.40;99.90;;;;;;5086089;28;20203;-48
2022/10/04 06:07:30;;;;;;;5.10;4.73;;;8.40;99.90;;;;;;5057699;28;20203;-49
2022/10/04 06:10:15;;;;;;;6.53;4.60;;;8.50;99.90;;;;;;5071541;28;20276;-49
2022/10/04 06:12:52;;;;;;;4.37;4.00;;;8.50;99.90;;;;;;5077500;28;20202;-48
2022/10/04 06:15:46;;;;;;;7.40;4.90;;;8.60;99.90;;;;;;5086275;28;20204;-48
2022/10/04 06:18:45;;;;;;;5.47;5.10;;;8.70;99.90;;;;;;5068653;28;20635;-48
2022/10/04 06:21:20;;;;;;;5.57;5.07;;;8.70;99.90;;;;;;5060849;28;20281;-49
2022/10/04 06:23:54;;;;;;;4.67;4.27;;;8.80;99.90;;;;;;5074435;28;20216;-48
2022/10/04 06:26:25;;;;;;;6.00;5.50;;;8.90;99.90;;;;;;5091365;28;20835;-48
2022/10/04 06:28:56;;;;;;;7.17;6.43;;;9.00;99.90;;;;;;5086583;28;20211;-49
2022/10/04 06:31:53;;;;;;;5.17;4.77;;;9.10;99.90;;;;;;5082539;28;20665;-48
2022/10/04 06:34:50;;;;;;;5.13;4.73;;;9.20;99.90;;;;;;5082251;28;20273;-48
2022/10/04 06:37:44;;;;;;;8.57;4.40;;;9.30;99.90;;;;;;5058963;28;20206;-49
2022/10/04 06:40:53;;;;;;;4.30;4.10;;;9.30;99.90;;;;;;5060856;28;20222;-48
2022/10/04 06:43:41;;;;;;;5.77;5.27;;;9.30;99.90;;;;;;5071351;28;20229;-48
2022/10/04 06:46:16;;;;;;;3.87;3.67;;;9.40;99.90;;;;;;5081568;28;20691;-48
2022/10/04 06:49:17;;;;;;;3.57;3.33;;;9.50;99.90;;;;;;5088103;28;20293;-49
2022/10/04 06:51:59;;;;;;;3.20;2.57;;;9.60;99.90;;;;;;5080884;28;20206;-48
2022/10/04 06:54:39;;;;;;;3.53;2.47;;;9.80;99.90;;;;;;5091013;28;20232;-49
2022/10/04 06:57:40;;;;;;;3.33;2.83;;;9.90;99.90;;;;;;5089768;28;20256;-49
2022/10/04 07:00:16;;;;;;;3.00;2.60;;;10.10;99.90;;;;;;5078543;28;20221;-48
2022/10/04 07:02:48;;;;;;;5.20;4.03;;;10.10;99.90;;;;;;5089378;28;20259;-48
2022/10/04 07:05:29;;;;;;;4.93;4.53;;;10.30;99.90;;;;;;5071131;28;20209;-48
2022/10/04 07:08:06;;;;;;;5.17;4.67;;;10.50;99.90;;;;;;5071192;28;20458;-48
2022/10/04 07:10:38;;;;;;;6.17;4.60;;;10.50;99.90;;;;;;5071359;28;20231;-48
2022/10/04 07:13:24;;;;;;;9.63;5.00;;;10.70;99.90;;;;;;5083299;28;20248;-49
2022/10/04 07:16:00;;;;;;;5.97;4.83;;;10.70;99.90;;;;;;5091979;28;20194;-48
2022/10/04 07:18:32;;;;;;;6.87;5.43;;;10.80;99.90;;;;;;5094890;28;20202;-50
2022/10/04 07:21:04;;;;;;;5.80;4.93;;;10.80;99.90;;;;;;5093348;28;20223;-48
2022/10/04 07:23:37;;;;;;;5.33;4.50;;;10.90;99.90;;;;;;5094323;28;20545;-48
2022/10/04 07:26:07;;;;;;;11.20;6.03;;;11.10;99.90;;;;;;5090525;28;20582;-49
2022/10/04 07:31:33;;;;;;;6.83;4.60;;;11.30;99.90;;;;;;5073850;28;20678;-48
2022/10/04 07:34:04;;;;;;;12.47;4.90;;;11.40;99.90;;;;;;5093989;28;20198;-49
2022/10/04 07:36:42;;;;;;;7.37;5.43;;;11.50;99.90;;;;;;5094665;28;20207;-49
2022/10/04 07:39:14;;;;;;;6.10;5.50;;;11.80;99.90;;;;;;5094438;28;20224;-48
2022/10/04 07:41:49;;;;;;;6.77;5.33;;;11.90;99.90;;;;;;5084858;28;20224;-48
2022/10/04 07:44:26;;;;;;;5.93;5.43;;;12.00;99.90;;;;;;5093327;28;20199;-49
2022/10/04 07:47:00;;;;;;;5.43;4.93;;;12.10;99.90;;;;;;5094228;28;20203;-48
2022/10/04 07:49:27;;;;;;;4.40;4.10;;;12.10;99.90;;;;;;5094127;28;20771;-49
2022/10/04 07:52:12;;;;;;;6.73;4.17;;;12.20;99.90;;;;;;5092852;28;20210;-48
2022/10/04 07:54:44;;;;;;;4.40;4.07;;;12.20;99.90;;;;;;5093709;28;20212;-49
2022/10/04 07:57:21;;;;;;;5.97;4.63;;;12.30;99.90;;;;;;5094011;28;20203;-48
2022/10/04 07:59:56;;;;;;;5.33;3.87;;;12.40;99.90;;;;;;5092103;28;20229;-48
2022/10/04 08:02:37;;;;;;;4.03;3.73;;;12.50;99.90;;;;;;5087411;28;20220;-49
2022/10/04 08:05:19;;;;;;;4.50;4.23;;;12.50;99.90;;;;;;5085969;28;20265;-48
2022/10/04 08:08:00;;;;;;;3.87;3.57;;;12.50;99.90;;;;;;5093828;28;20623;-49
2022/10/04 08:10:34;;;;;;;4.13;3.83;;;12.60;99.90;;;;;;5093712;28;20219;-48
2022/10/04 08:13:10;;;;;;;4.73;3.20;;;12.80;99.90;;;;;;5092329;28;20218;-49
2022/10/04 08:15:38;;;;;;;4.07;3.87;;;12.90;99.90;;;;;;5093824;28;20195;-49
2022/10/04 08:18:28;;;;;;;4.27;3.60;;;13.10;99.90;;;;;;5081206;28;20209;-48
2022/10/04 08:20:58;;;;;;;4.33;3.93;;;13.40;99.90;;;;;;5074555;28;20590;-49
2022/10/04 08:23:41;;;;;;;3.97;3.67;;;13.50;99.90;;;;;;5093226;28;20197;-49
2022/10/04 08:26:25;;;;;;;3.67;3.43;;;13.60;99.90;;;;;;5073581;28;20291;-49
2022/10/04 08:31:59;;;;;;;4.40;4.00;;;14.00;99.90;;;;;;5074310;28;20200;-48
2022/10/04 08:34:44;;;;;;;4.50;4.10;;;14.00;99.90;;;;;;5092572;28;20206;-50
2022/10/04 08:37:23;;;;;;;5.07;4.73;;;14.10;99.90;;;;;;5093455;28;20197;-49
2022/10/04 08:40:01;;;;;;;6.40;4.60;;;14.30;99.90;;;;;;5093130;28;20228;-48
2022/10/04 08:43:09;;;;;;;5.03;4.60;;;14.60;99.90;;;;;;5084805;28;20216;-48
2022/10/04 08:46:09;;;;;;;7.47;4.20;;;14.80;99.90;;;;;;5089675;28;20200;-49
2022/10/04 08:48:56;;;;;;;4.63;3.93;;;15.10;99.90;;;;;;5082552;28;20246;-49
2022/10/04 08:51:59;;;;;;;4.13;3.83;;;15.60;99.90;;;;;;5090094;28;20201;-49
2022/10/04 08:55:04;;;;;;;4.63;3.83;;;16.10;99.90;;;;;;5087833;28;20241;-49
2022/10/04 08:57:59;;;;;;;2.63;2.43;;;16.00;99.90;;;;;;5091021;28;20196;-49
2022/10/04 09:00:38;;;;;;;4.23;2.87;;;16.10;99.90;;;;;;5083183;28;20249;-49
2022/10/04 09:03:44;;;;;;;3.23;2.93;;;16.10;99.90;;;;;;5089323;28;20238;-49
2022/10/04 09:06:25;;;;;;;3.10;2.90;;;15.90;99.90;;;;;;5058695;28;20204;-48
2022/10/04 09:09:34;;;;;;;4.40;3.30;;;15.70;99.90;;;;;;5092598;28;20205;-49
2022/10/04 09:12:20;;;;;;;3.73;3.23;;;15.50;99.90;;;;;;5088695;28;20275;-50
2022/10/04 09:15:21;;;;;;;2.83;2.67;;;15.30;99.90;;;;;;5091093;28;20204;-49
2022/10/04 09:17:54;;;;;;;3.00;2.80;;;14.90;99.90;;;;;;5092406;28;20196;-49
2022/10/04 09:20:41;;;;;;;2.53;2.43;;;14.90;99.90;;;;;;5092553;28;20216;-49
2022/10/04 09:23:21;;;;;;;4.73;2.93;;;15.00;99.90;;;;;;5085707;28;20216;-49
2022/10/04 09:26:06;;;;;;;5.43;4.07;;;15.10;99.90;;;;;;5092291;28;20208;-49
2022/10/04 09:29:15;;;;;;;4.00;3.60;;;15.70;99.90;;;;;;5092478;28;20200;-49
2022/10/04 09:32:21;;;;;;;7.33;4.03;;;16.40;99.90;;;;;;5086896;28;20270;-50
2022/10/04 09:35:21;;;;;;;4.20;3.90;;;16.60;99.90;;;;;;5091973;28;20245;-50
2022/10/04 09:38:18;;;;;;;4.93;3.70;;;16.80;99.90;;;;;;5092258;28;20555;-50
2022/10/04 09:41:29;;;;;;;5.00;4.60;;;17.40;99.90;;;;;;5089685;28;20765;-50
2022/10/04 09:44:34;;;;;;;5.37;4.90;;;17.40;99.90;;;;;;5090903;28;20197;-50
2022/10/04 09:47:36;;;;;;;11.10;4.93;;;17.80;99.90;;;;;;5091987;28;20253;-49
2022/10/04 09:50:34;;;;;;;6.07;4.07;;;18.00;99.90;;;;;;5087489;28;20717;-50
2022/10/04 09:53:20;;;;;;;4.50;4.10;;;18.70;99.90;;;;;;5086654;28;20205;-49
2022/10/04 09:56:03;;;;;;;4.60;3.87;;;18.40;99.90;;;;;;5091804;28;20746;-50
2022/10/04 09:58:52;;;;;;;6.27;4.67;;;18.80;99.90;;;;;;5088779;28;20678;-49
2022/10/04 10:01:27;;;;;;;4.20;3.80;;;19.10;99.90;;;;;;5082609;28;20282;-49
2022/10/04 10:04:28;;;;;;;5.73;4.60;;;19.30;99.90;;;;;;5080446;28;20670;-50
2022/10/04 10:07:20;;;;;;;5.80;5.30;;;19.00;99.90;;;;;;5090878;28;20195;-50
2022/10/04 10:13:41;;;;;;;5.83;5.30;;;18.60;99.90;;;;;;5090380;28;20287;-49
2022/10/04 10:16:34;;;;;;;6.03;5.03;;;18.20;99.90;;;;;;5041218;28;20249;-50
2022/10/04 10:19:15;;;;;;;5.33;5.00;;;17.60;99.90;;;;;;5071539;28;20291;-49
2022/10/04 10:21:55;;;;;;;6.13;5.63;;;17.00;99.90;;;;;;5082944;28;20216;-49
2022/10/04 10:24:45;;;;;;;6.53;6.00;;;16.60;99.90;;;;;;5091220;28;20216;-49
2022/10/04 10:27:53;;;;;;;5.80;5.43;;;16.30;99.90;;;;;;5091764;28;20208;-49
2022/10/04 10:30:29;;;;;;;5.20;4.70;;;16.40;99.90;;;;;;5029067;28;20233;-49
2022/10/04 10:33:32;;;;;;;6.43;5.90;;;16.60;99.90;;;;;;5083906;28;20227;-49
2022/10/04 10:36:23;;;;;;;5.80;5.33;;;16.50;99.90;;;;;;5091606;28;20268;-49
2022/10/04 10:39:16;;;;;;;5.83;5.23;;;16.80;99.90;;;;;;5062027;28;20204;-49
2022/10/04 10:41:56;;;;;;;6.10;5.70;;;16.40;99.90;;;;;;5090493;28;20224;-49
2022/10/04 10:44:36;;;;;;;10.17;5.60;;;16.10;99.90;;;;;;5091354;28;20193;-50
2022/10/04 10:47:20;;;;;;;5.73;5.13;;;15.90;99.90;;;;;;5091443;28;20196;-50
2022/10/04 10:49:57;;;;;;;5.80;5.40;;;15.70;99.90;;;;;;5091697;28;20254;-49
2022/10/04 10:53:06;;;;;;;6.10;5.50;;;15.80;99.90;;;;;;5082260;28;20205;-49
2022/10/04 10:55:59;;;;;;;5.37;4.97;;;16.20;99.90;;;;;;5086070;28;20193;-49
2022/10/04 10:59:04;;;;;;;8.57;6.10;;;16.30;99.90;;;;;;5050995;28;20689;-49
2022/10/04 11:02:10;;;;;;;6.60;6.00;;;16.60;99.90;;;;;;5074718;28;20291;-50
2022/10/04 11:04:53;;;;;;;7.90;6.43;;;16.50;99.90;;;;;;5075188;28;20196;-48
2022/10/04 11:07:50;;;;;;;7.93;5.90;;;16.10;99.90;;;;;;5088631;28;20208;-48
2022/10/04 11:10:53;;;;;;;5.67;5.17;;;16.10;99.90;;;;;;5089758;28;20217;-49
2022/10/04 11:13:49;;;;;;;7.97;5.67;;;16.20;99.90;;;;;;5092440;28;20203;-49
2022/10/04 11:17:00;;;;;;;6.43;4.60;;;16.10;99.90;;;;;;5088339;28;20224;-49
2022/10/04 11:20:05;;;;;;;5.67;5.23;;;16.20;99.90;;;;;;5094863;28;20252;-49
2022/10/04 11:23:21;;;;;;;5.37;4.93;;;16.10;99.90;;;;;;5068697;28;20246;-48
2022/10/04 11:26:08;;;;;;;5.27;4.77;;;16.10;99.90;;;;;;5092130;28;20204;-49
2022/10/04 11:28:45;;;;;;;7.10;5.27;;;16.10;99.90;;;;;;5087870;28;20723;-49
2022/10/04 11:31:50;;;;;;;4.93;4.53;;;16.20;99.90;;;;;;5081498;28;20662;-55
2022/10/04 11:34:58;;;;;;;4.60;4.30;;;16.30;99.90;;;;;;5089368;28;20220;-49
2022/10/04 11:37:42;;;;;;;4.70;4.33;;;16.40;99.90;;;;;;5087733;28;20219;-50
2022/10/04 11:40:30;;;;;;;5.87;5.37;;;16.20;99.90;;;;;;5085878;28;20216;-48
2022/10/04 11:43:26;;;;;;;4.73;4.17;;;16.20;99.90;;;;;;5084022;28;20303;-48
2022/10/04 11:46:10;;;;;;;5.07;4.40;;;16.30;99.90;;;;;;5087942;28;20208;-49
2022/10/04 11:48:52;;;;;;;6.90;4.30;;;16.40;99.90;;;;;;5089740;28;20246;-48
2022/10/04 11:51:50;;;;;;;5.77;5.17;;;16.50;99.90;;;;;;5088002;28;20773;-50
2022/10/04 11:54:39;;;;;;;5.27;4.97;;;16.40;99.90;;;;;;5081288;28;20216;-49
2022/10/04 11:57:16;;;;;;;5.27;4.93;;;16.40;99.90;;;;;;5084287;28;20201;-49
2022/10/04 11:59:56;;;;;;;8.20;5.77;;;16.40;99.90;;;;;;5091010;28;20224;-49
2022/10/04 12:03:00;;;;;;;6.70;6.10;;;16.40;99.90;;;;;;5091997;28;20219;-48
2022/10/04 12:06:02;;;;;;;7.53;5.43;;;16.40;99.90;;;;;;5085573;28;20195;-48
2022/10/04 12:08:47;;;;;;;7.73;6.40;;;16.10;99.90;;;;;;5092042;28;20735;-48
2022/10/04 12:14:58;;;;;;;8.30;7.07;;;16.00;99.90;;;;;;5054826;28;20211;-50
2022/10/04 12:18:05;;;;;;;9.13;8.10;;;15.90;99.90;;;;;;5073606;28;20205;-49
2022/10/04 12:21:00;;;;;;;6.93;6.43;;;15.90;99.90;;;;;;5062893;28;20603;-49
2022/10/04 12:23:50;;;;;;;7.40;6.80;;;16.00;99.90;;;;;;5088004;28;20227;-48
2022/10/04 12:26:44;;;;;;;8.67;6.50;;;16.10;99.90;;;;;;5073217;28;20258;-48
2022/10/04 12:29:32;;;;;;;11.33;7.33;;;16.20;99.90;;;;;;5080224;28;20593;-48
2022/10/04 12:32:09;;;;;;;8.20;7.40;;;16.10;99.90;;;;;;5091122;28;20197;-49
2022/10/04 12:34:47;;;;;;;9.00;8.10;;;16.10;99.90;;;;;;5086972;28;20249;-48
2022/10/04 12:37:24;;;;;;;8.13;7.43;;;16.10;99.90;;;;;;5092986;28;20200;-48
2022/10/04 12:40:08;;;;;;;8.43;7.53;;;16.10;99.90;;;;;;5092981;28;20583;-48
2022/10/04 12:42:45;;;;;;;8.10;7.27;;;16.10;99.90;;;;;;5091884;28;20216;-48
2022/10/04 12:45:33;;;;;;;9.17;8.23;;;16.00;99.90;;;;;;5086131;28;20623;-48
2022/10/04 12:48:23;;;;;;;10.17;8.70;;;15.90;99.90;;;;;;5093065;28;20223;-49
2022/10/04 12:51:00;;;;;;;7.60;6.80;;;15.80;99.90;;;;;;5073655;28;20668;-49
2022/10/04 12:53:41;;;;;;;12.33;8.77;;;15.70;99.90;;;;;;5084442;28;20250;-48
2022/10/04 12:56:21;;;;;;;9.17;8.10;;;15.80;99.90;;;;;;5085663;28;20250;-47
2022/10/04 12:59:15;;;;;;;8.53;7.83;;;15.70;99.90;;;;;;5090403;28;20205;-48
2022/10/04 13:01:51;;;;;;;9.10;8.30;;;15.70;99.90;;;;;;5088306;28;20204;-47
2022/10/04 13:04:29;;;;;;;10.07;8.90;;;15.80;99.90;;;;;;5086350;28;20248;-48
2022/10/04 13:07:35;;;;;;;8.37;7.57;;;15.70;99.90;;;;;;5081155;28;20248;-47
2022/10/04 13:10:43;;;;;;;9.20;7.80;;;15.60;99.90;;;;;;5072095;28;20674;-48
2022/10/04 13:13:46;;;;;;;7.97;6.80;;;15.50;99.90;;;;;;5084258;28;20658;-49
2022/10/04 13:16:21;;;;;;;13.20;8.10;;;15.70;99.90;;;;;;5072194;28;20192;-48
2022/10/04 13:18:56;;;;;;;10.93;8.43;;;15.70;99.90;;;;;;5092426;28;20585;-48
2022/10/04 13:21:53;;;;;;;9.53;8.43;;;15.80;99.90;;;;;;5092430;28;20207;-48
2022/10/04 13:24:27;;;;;;;10.80;8.60;;;15.80;99.90;;;;;;5091400;28;20757;-48
2022/10/04 13:26:58;;;;;;;9.47;8.60;;;15.70;99.90;;;;;;5093587;28;20192;-48
2022/10/04 13:29:32;;;;;;;8.27;7.47;;;15.60;99.90;;;;;;5092158;28;20709;-50
2022/10/04 13:32:04;;;;;;;8.23;7.50;;;15.70;99.90;;;;;;5090911;28;20260;-47
2022/10/04 13:34:38;;;;;;;9.50;8.67;;;15.80;99.90;;;;;;5091844;28;20188;-47
2022/10/04 13:37:30;;;;;;;9.97;8.63;;;15.90;99.90;;;;;;5092229;28;20269;-48
2022/10/04 13:40:25;;;;;;;10.90;8.63;;;15.70;99.90;;;;;;5072489;28;20768;-49
2022/10/04 13:43:08;;;;;;;9.20;8.30;;;15.60;99.90;;;;;;5081881;28;20758;-48
2022/10/04 13:45:48;;;;;;;8.57;7.77;;;15.50;99.90;;;;;;5092009;28;20709;-48
2022/10/04 13:48:42;;;;;;;8.63;7.83;;;15.40;99.90;;;;;;5092172;28;20200;-47
2022/10/04 13:51:39;;;;;;;9.60;8.60;;;15.30;99.90;;;;;;5091916;28;20754;-48
2022/10/04 13:57:20;;;;;;;8.13;7.40;;;15.10;99.90;;;;;;5077003;28;20212;-47
2022/10/04 13:59:53;;;;;;;9.73;8.73;;;15.10;99.90;;;;;;5091889;28;20242;-47
2022/10/04 14:03:09;;;;;;;11.90;7.60;;;15.10;99.90;;;;;;5085140;28;20605;-48
2022/10/04 14:06:07;;;;;;;8.37;7.70;;;15.20;99.90;;;;;;5025897;28;20216;-48
2022/10/04 14:09:00;;;;;;;8.20;7.50;;;15.30;99.90;;;;;;5070581;28;20208;-48
2022/10/04 14:11:55;;;;;;;9.73;8.93;;;15.30;99.90;;;;;;5071597;28;20208;-48
2022/10/04 14:14:55;;;;;;;7.50;6.80;;;15.30;99.90;;;;;;5085500;28;20196;-47
2022/10/04 14:17:59;;;;;;;9.67;7.30;;;15.30;99.90;;;;;;5069843;28;20205;-48
2022/10/04 14:21:14;;;;;;;9.30;7.67;;;15.20;99.90;;;;;;5048516;28;20298;-47
2022/10/04 14:24:17;;;;;;;8.30;7.50;;;15.20;99.90;;;;;;5046002;28;20758;-48
2022/10/04 14:27:10;;;;;;;10.40;7.70;;;15.00;99.90;;;;;;5093934;28;20196;-47
2022/10/04 14:30:23;;;;;;;8.45;7.57;;;15.00;99.90;;;;;;5055217;28;20506;-47
2022/10/04 14:33:26;;;;;;;7.77;6.93;;;14.90;99.90;;;;;;5031087;28;20252;-48
2022/10/04 14:36:15;;;;;;;8.67;6.97;;;15.00;99.90;;;;;;5023136;28;20260;-47